createdAt,value
2018-12-01T00:04:10.025Z,47.39
2018-12-01T00:09:13.226Z,47.35
2018-12-01T00:14:16.453Z,47.25
2018-12-01T00:19:19.653Z,47.59
2018-12-01T00:24:22.865Z,47.43
2018-12-01T00:29:26.019Z,47.34
2018-12-01T00:34:29.266Z,47.37
2018-12-01T00:39:32.461Z,47.66
2018-12-01T00:44:35.708Z,47.54
2018-12-01T00:49:38.887Z,47.60
2018-12-01T00:54:42.110Z,47.36
2018-12-01T00:59:45.311Z,47.66
2018-12-01T01:04:49.321Z,47.72
2018-12-01T01:09:51.709Z,47.73
2018-12-01T01:14:54.934Z,47.47
2018-12-01T01:19:58.141Z,47.52
2018-12-01T01:25:01.346Z,47.40
2018-12-01T01:30:10.712Z,47.37
2018-12-01T01:35:14.106Z,47.54
2018-12-01T01:40:17.938Z,47.57
2018-12-01T01:45:21.150Z,47.63
2018-12-01T01:50:24.357Z,47.55
2018-12-01T01:55:27.562Z,47.89
2018-12-01T02:00:30.774Z,47.58
2018-12-01T02:05:33.977Z,47.50
2018-12-01T02:10:37.354Z,47.81
2018-12-01T02:15:40.522Z,47.77
2018-12-01T02:20:43.718Z,47.99
2018-12-01T02:25:46.918Z,47.58
2018-12-01T02:30:50.136Z,47.70
2018-12-01T02:35:53.335Z,47.64
2018-12-01T02:40:56.537Z,48.06
2018-12-01T02:46:11.267Z,47.66
2018-12-01T02:51:14.426Z,47.71
2018-12-01T02:56:17.626Z,47.98
2018-12-01T03:01:20.834Z,48.06
2018-12-01T03:06:24.041Z,48.11
2018-12-01T03:11:27.265Z,47.59
2018-12-01T03:16:30.477Z,47.94
2018-12-01T03:21:33.685Z,48.14
2018-12-01T03:26:36.873Z,48.03
2018-12-01T03:31:40.087Z,48.13
2018-12-01T03:36:43.305Z,47.64
2018-12-01T03:41:46.517Z,47.78
2018-12-01T03:46:49.730Z,48.16
2018-12-01T03:51:52.925Z,48.14
2018-12-01T03:56:56.134Z,47.94
2018-12-01T04:01:59.349Z,47.74
2018-12-01T04:07:02.555Z,48.05
2018-12-01T04:12:06.062Z,48.48
2018-12-01T04:17:09.280Z,48.75
2018-12-01T04:22:13.801Z,48.23
2018-12-01T04:27:18.611Z,48.72
2018-12-01T04:32:21.774Z,48.47
2018-12-01T04:37:24.982Z,48.70
2018-12-01T04:42:28.192Z,48.46
2018-12-01T04:47:31.398Z,48.11
2018-12-01T04:52:34.613Z,48.27
2018-12-01T04:57:37.824Z,48.30
2018-12-01T05:02:41.025Z,48.27
2018-12-01T05:07:44.237Z,48.29
2018-12-01T05:12:47.438Z,48.16
2018-12-01T05:17:50.642Z,47.88
2018-12-01T05:22:54.154Z,48.07
2018-12-01T05:27:57.378Z,47.79
2018-12-01T05:33:00.582Z,47.81
2018-12-01T05:38:03.786Z,47.88
2018-12-01T05:43:07.005Z,47.79
2018-12-01T05:48:10.198Z,47.92
2018-12-01T05:53:13.405Z,47.97
2018-12-01T05:58:16.609Z,48.01
2018-12-01T06:03:19.842Z,47.81
2018-12-01T06:08:23.041Z,47.67
2018-12-01T06:13:26.254Z,48.10
2018-12-01T06:18:29.453Z,47.90
2018-12-01T06:23:32.621Z,47.71
2018-12-01T06:28:35.882Z,48.05
2018-12-01T06:33:39.077Z,47.98
2018-12-01T06:38:42.286Z,48.03
2018-12-01T06:43:45.499Z,48.05
2018-12-01T06:48:48.673Z,47.93
2018-12-01T06:53:51.823Z,48.14
2018-12-01T06:58:55.017Z,48.09
2018-12-01T07:03:58.225Z,47.74
2018-12-01T07:09:01.444Z,47.84
2018-12-01T07:14:05.182Z,47.97
2018-12-01T07:19:22.909Z,47.78
2018-12-01T07:24:26.118Z,48.65
2018-12-01T07:29:29.317Z,47.78
2018-12-01T07:34:32.539Z,47.85
2018-12-01T07:39:35.748Z,48.21
2018-12-01T07:44:38.957Z,47.75
2018-12-01T07:49:42.162Z,42.77
2018-12-01T07:54:45.365Z,39.36
2018-12-01T07:59:48.587Z,37.78
2018-12-01T08:04:51.818Z,38.81
2018-12-01T08:09:55.065Z,40.07
2018-12-01T08:14:58.569Z,41.46
2018-12-01T08:20:01.838Z,41.95
2018-12-01T08:25:08.009Z,41.77
2018-12-01T08:30:13.233Z,42.30
2018-12-01T08:35:16.466Z,42.30
2018-12-01T08:40:21.114Z,42.59
2018-12-01T08:45:24.337Z,42.71
2018-12-01T08:50:27.526Z,43.06
2018-12-01T08:55:30.730Z,42.91
2018-12-01T09:00:39.741Z,43.55
2018-12-01T09:05:42.893Z,43.50
2018-12-01T09:10:46.102Z,43.63
2018-12-01T09:15:49.265Z,43.80
2018-12-01T09:20:52.430Z,43.75
2018-12-01T09:25:55.622Z,44.21
2018-12-01T09:30:58.837Z,44.49
2018-12-01T09:36:02.039Z,44.56
2018-12-01T09:41:05.358Z,44.22
2018-12-01T09:46:08.553Z,44.38
2018-12-01T09:51:11.779Z,44.58
2018-12-01T09:56:14.991Z,45.07
2018-12-01T10:01:18.192Z,45.25
2018-12-01T10:06:21.402Z,45.33
2018-12-01T10:11:24.554Z,45.35
2018-12-01T10:16:27.805Z,45.02
2018-12-01T10:21:30.958Z,45.33
2018-12-01T10:26:34.126Z,45.15
2018-12-01T10:31:37.341Z,45.42
2018-12-01T10:36:40.550Z,45.80
2018-12-01T10:41:43.757Z,45.79
2018-12-01T10:46:46.958Z,46.35
2018-12-01T10:51:50.267Z,46.29
2018-12-01T10:56:53.494Z,46.28
2018-12-01T11:02:02.142Z,46.66
2018-12-01T11:07:05.916Z,46.68
2018-12-01T11:12:09.146Z,46.31
2018-12-01T11:17:13.362Z,46.47
2018-12-01T11:22:16.612Z,47.02
2018-12-01T11:27:19.795Z,46.84
2018-12-01T11:32:23.446Z,47.33
2018-12-01T11:37:26.946Z,47.29
2018-12-01T11:42:30.142Z,47.07
2018-12-01T11:47:33.362Z,47.12
2018-12-01T11:52:36.531Z,47.26
2018-12-01T11:57:40.823Z,46.94
2018-12-01T12:02:44.252Z,47.07
2018-12-01T12:07:58.922Z,47.96
2018-12-01T12:13:03.146Z,48.05
2018-12-01T12:18:06.484Z,48.25
2018-12-01T12:23:09.754Z,48.35
2018-12-01T12:28:12.942Z,48.24
2018-12-01T12:33:16.180Z,48.12
2018-12-01T12:38:19.367Z,48.74
2018-12-01T12:43:22.826Z,48.67
2018-12-01T12:48:26.003Z,48.58
2018-12-01T12:53:29.196Z,49.10
2018-12-01T12:58:32.390Z,48.69
2018-12-01T13:03:35.599Z,48.69
2018-12-01T13:08:38.762Z,48.41
2018-12-01T13:13:41.923Z,48.72
2018-12-01T13:18:45.122Z,48.54
2018-12-01T13:23:48.758Z,48.64
2018-12-01T13:28:51.992Z,48.83
2018-12-01T13:33:55.386Z,48.92
2018-12-01T13:38:58.586Z,49.03
2018-12-01T13:44:01.797Z,49.01
2018-12-01T13:49:05.113Z,48.31
2018-12-01T13:54:08.427Z,48.56
2018-12-01T13:59:11.733Z,48.50
2018-12-01T14:04:14.938Z,48.16
2018-12-01T14:09:18.666Z,48.52
2018-12-01T14:14:22.842Z,48.42
2018-12-01T14:19:26.420Z,48.45
2018-12-01T14:24:29.577Z,48.44
2018-12-01T14:29:32.824Z,48.52
2018-12-01T14:34:36.031Z,48.16
2018-12-01T14:39:39.231Z,48.02
2018-12-01T14:44:42.437Z,48.08
2018-12-01T14:49:45.647Z,48.00
2018-12-01T14:54:49.476Z,48.49
2018-12-01T14:59:54.314Z,48.55
2018-12-01T15:04:57.522Z,48.67
2018-12-01T15:10:00.736Z,48.73
2018-12-01T15:15:04.241Z,48.58
2018-12-01T15:20:16.454Z,48.85
2018-12-01T15:25:21.731Z,49.41
2018-12-01T15:30:26.913Z,49.35
2018-12-01T15:35:30.118Z,49.30
2018-12-01T15:40:33.299Z,49.27
2018-12-01T15:45:36.641Z,49.34
2018-12-01T15:50:39.939Z,49.22
2018-12-01T15:55:43.311Z,49.13
2018-12-01T16:00:46.707Z,49.55
2018-12-01T16:05:49.977Z,49.39
2018-12-01T16:10:53.190Z,49.24
2018-12-01T16:16:01.104Z,48.85
2018-12-01T16:21:04.365Z,49.06
2018-12-01T16:26:07.626Z,48.37
2018-12-01T16:31:10.798Z,48.27
2018-12-01T16:36:14.050Z,48.73
2018-12-01T16:41:22.170Z,48.38
2018-12-01T16:46:25.335Z,48.70
2018-12-01T16:51:28.586Z,48.45
2018-12-01T16:56:31.786Z,48.19
2018-12-01T17:01:34.982Z,48.48
2018-12-01T17:06:38.215Z,48.17
2018-12-01T17:11:41.430Z,48.16
2018-12-01T17:16:44.622Z,48.34
2018-12-01T17:21:47.828Z,48.35
2018-12-01T17:26:51.041Z,48.11
2018-12-01T17:31:54.233Z,48.33
2018-12-01T17:36:57.421Z,48.84
2018-12-01T17:42:01.878Z,48.95
2018-12-01T17:47:05.302Z,49.38
2018-12-01T17:52:08.494Z,48.93
2018-12-01T17:57:11.714Z,48.73
2018-12-01T18:02:14.910Z,48.51
2018-12-01T18:07:18.122Z,48.59
2018-12-01T18:12:21.326Z,47.75
2018-12-01T18:17:24.545Z,48.26
2018-12-01T18:22:27.755Z,47.34
2018-12-01T18:27:30.954Z,47.13
2018-12-01T18:32:34.158Z,46.83
2018-12-01T18:37:38.034Z,47.32
2018-12-01T18:42:41.213Z,47.09
2018-12-01T18:47:44.721Z,47.04
2018-12-01T18:52:52.793Z,47.35
2018-12-01T18:57:56.014Z,47.62
2018-12-01T19:02:59.270Z,47.54
2018-12-01T19:08:02.738Z,46.92
2018-12-01T19:13:06.978Z,47.06
2018-12-01T19:18:10.313Z,47.41
2018-12-01T19:23:14.759Z,46.87
2018-12-01T19:28:17.962Z,46.74
2018-12-01T19:33:22.541Z,47.14
2018-12-01T19:38:28.271Z,47.51
2018-12-01T19:43:31.478Z,46.99
2018-12-01T19:48:35.566Z,46.98
2018-12-01T19:53:38.734Z,47.32
2018-12-01T19:58:41.921Z,47.17
2018-12-01T20:03:45.149Z,46.73
2018-12-01T20:08:48.335Z,46.89
2018-12-01T20:13:51.559Z,46.91
2018-12-01T20:18:54.973Z,47.04
2018-12-01T20:23:58.144Z,47.43
2018-12-01T20:29:01.897Z,47.19
2018-12-01T20:34:05.235Z,47.72
2018-12-01T20:39:12.813Z,47.64
2018-12-01T20:44:16.030Z,47.44
2018-12-01T20:49:19.217Z,47.54
2018-12-01T20:54:33.586Z,47.54
2018-12-01T20:59:36.797Z,47.80
2018-12-01T21:04:40.006Z,47.69
2018-12-01T21:09:43.224Z,48.02
2018-12-01T21:14:46.457Z,48.18
2018-12-01T21:19:49.629Z,48.32
2018-12-01T21:24:52.844Z,48.10
2018-12-01T21:29:56.042Z,48.28
2018-12-01T21:34:59.258Z,48.59
2018-12-01T21:40:02.422Z,48.67
2018-12-01T21:45:07.859Z,48.80
2018-12-01T21:50:12.477Z,48.91
2018-12-01T21:55:15.687Z,48.71
2018-12-01T22:00:23.050Z,48.79
2018-12-01T22:05:38.122Z,48.81
2018-12-01T22:10:41.430Z,48.87
2018-12-01T22:15:44.596Z,48.58
2018-12-01T22:20:47.803Z,48.76
2018-12-01T22:25:51.001Z,48.60
2018-12-01T22:30:54.225Z,48.64
2018-12-01T22:35:57.430Z,48.60
2018-12-01T22:41:00.626Z,48.53
2018-12-01T22:46:03.849Z,49.05
2018-12-01T22:51:07.160Z,48.62
2018-12-01T22:56:10.381Z,48.84
2018-12-01T23:01:14.169Z,48.57
2018-12-01T23:06:17.402Z,49.14
2018-12-01T23:11:20.609Z,48.95
2018-12-01T23:16:23.812Z,49.09
2018-12-01T23:21:27.025Z,49.19
2018-12-01T23:26:31.565Z,48.76
2018-12-01T23:31:34.771Z,48.89
2018-12-01T23:36:37.981Z,49.18
2018-12-01T23:41:42.237Z,48.79
2018-12-01T23:46:45.401Z,49.13
2018-12-01T23:51:48.567Z,49.24
2018-12-01T23:56:51.752Z,49.10
